ROMMA est une association bénévole à but non lucratif. Votre soutien est indispensable : ADHERER à ROMMA ou FAIRE un DON

Le Versoud - (38, Isère)

Vallée du Grésivaudan (220 m)   Longitude: 05° 51' 44" E   Latitude: 45° 13' 06" N Station partenaire n°6
 

Détail journalier du     <<     >>

Température Humidité Pression Vent Dir Rafale Dir. rafale Ensol.
Heure (°C) (%) (hPa) (km/h) (km/h) (min)
01:00 12.092101500---0
02:00 12.093101402NNO0
03:00 11.993101400---0
04:00 11.894101400---0
05:00 11.893101400---0
06:00 11.793101400---0
07:00 11.694101400---0
08:00 11.494101500---0
09:00 11.894101500---0
10:00 12.791101500---0
11:00 14.883101500---20
12:00 16.475101502E40
13:00 18.1631015013E50
14:00 18.36710141N19NE5
15:00 18.95910144NE24N25
16:00 19.35310137NE32NE60
17:00 19.35310136NE26NE60
18:00 18.85510142N19N35
19:00 17.26410141N19N20
20:00 15.675101500---0
21:00 14.377101500---0
22:00 13.282101600---0
23:00 11.986101600---0
minuit 11.188101600---0

Graphique du 05-10-2019

 

Serveur OMMA